createdAt,value
2022-07-31T00:02:07.936Z,95176.31
2022-07-31T00:04:34.636Z,95181.69
2022-07-31T00:07:01.492Z,95166.13
2022-07-31T00:09:52.974Z,95160.81
2022-07-31T00:12:17.601Z,95167.81
2022-07-31T00:14:44.762Z,95164.03
2022-07-31T00:17:11.314Z,95163.72
2022-07-31T00:19:38.060Z,95166.44
2022-07-31T00:22:04.932Z,95165.06
2022-07-31T00:24:31.660Z,95158.59
2022-07-31T00:26:58.261Z,95166.13
2022-07-31T00:29:24.944Z,95167.00
2022-07-31T00:31:51.571Z,95171.03
2022-07-31T00:34:18.155Z,95162.97
2022-07-31T00:36:44.723Z,95168.34
2022-07-31T00:39:11.285Z,95171.03
2022-07-31T00:41:43.162Z,95174.25
2022-07-31T00:44:12.878Z,95169.94
2022-07-31T00:46:40.746Z,95168.31
2022-07-31T00:49:10.206Z,95165.66
2022-07-31T00:51:38.512Z,95160.28
2022-07-31T00:54:06.742Z,95160.28
2022-07-31T00:56:33.429Z,95165.66
2022-07-31T00:59:00.118Z,95167.28
2022-07-31T01:01:27.752Z,95165.13
2022-07-31T01:03:54.404Z,95167.53
2022-07-31T01:06:21.055Z,95174.50
2022-07-31T01:08:48.773Z,95178.56
2022-07-31T01:11:44.749Z,95166.19
2022-07-31T01:14:12.497Z,95160.53
2022-07-31T01:16:43.070Z,95166.72
2022-07-31T01:19:39.702Z,95167.28
2022-07-31T01:22:53.280Z,95165.91
2022-07-31T01:25:37.956Z,95160.31
2022-07-31T01:28:10.501Z,95165.69
2022-07-31T01:30:45.720Z,95157.63
2022-07-31T01:33:22.941Z,95156.84
2022-07-31T01:35:54.257Z,95156.84
2022-07-31T01:38:35.571Z,95166.25
2022-07-31T01:41:07.516Z,95166.25
2022-07-31T01:43:39.291Z,95163.34
2022-07-31T01:46:09.264Z,95168.47
2022-07-31T01:48:36.603Z,95161.50
2022-07-31T01:51:04.130Z,95161.22
2022-07-31T01:53:32.127Z,95163.09
2022-07-31T01:56:02.626Z,95160.69
2022-07-31T01:58:33.558Z,95156.13
2022-07-31T02:01:03.636Z,95154.50
2022-07-31T02:03:44.331Z,95147.53
2022-07-31T02:06:16.993Z,95146.72
2022-07-31T02:08:49.137Z,95156.69
2022-07-31T02:11:18.253Z,95147.59
2022-07-31T02:13:46.797Z,95137.41
2022-07-31T02:16:14.817Z,95144.44
2022-07-31T02:18:42.518Z,95130.25
2022-07-31T02:21:09.606Z,95132.91
2022-07-31T02:23:38.419Z,95126.47
2022-07-31T02:26:07.210Z,95125.09
2022-07-31T02:28:38.049Z,95118.09
2022-07-31T02:31:10.329Z,95116.50
2022-07-31T02:33:38.229Z,95118.13
2022-07-31T02:36:06.712Z,95125.44
2022-07-31T02:38:35.212Z,95121.44
2022-07-31T02:41:05.103Z,95116.38
2022-07-31T02:43:33.357Z,95112.38
2022-07-31T02:46:00.690Z,95112.94
2022-07-31T02:48:28.195Z,95113.72
2022-07-31T02:50:55.382Z,95115.13
2022-07-31T02:53:22.285Z,95107.59
2022-07-31T02:55:50.748Z,95111.28
2022-07-31T02:58:17.418Z,95112.91
2022-07-31T03:00:44.136Z,95114.78
2022-07-31T03:03:10.717Z,95105.69
2022-07-31T03:05:37.285Z,95109.97
2022-07-31T03:08:04.504Z,95109.41
2022-07-31T03:10:31.273Z,95108.84
2022-07-31T03:12:58.353Z,95109.66
2022-07-31T03:15:26.986Z,95106.69
2022-07-31T03:17:54.519Z,95112.91
2022-07-31T03:20:22.126Z,95107.00
2022-07-31T03:22:49.610Z,95105.63
2022-07-31T03:25:21.495Z,95104.63
2022-07-31T03:27:55.788Z,95107.59
2022-07-31T03:30:26.558Z,95103.81
2022-07-31T03:32:54.984Z,95098.16
2022-07-31T03:35:22.043Z,95094.69
2022-07-31T03:37:48.698Z,95096.28
2022-07-31T03:40:15.366Z,95092.25
2022-07-31T03:42:42.764Z,95093.34
2022-07-31T03:45:10.920Z,95089.84
2022-07-31T03:47:37.849Z,95094.16
2022-07-31T03:50:05.866Z,95095.22
2022-07-31T03:52:32.508Z,95092.53
2022-07-31T03:54:59.477Z,95098.44
2022-07-31T03:57:29.058Z,95088.25
2022-07-31T04:00:00.311Z,95094.50
2022-07-31T04:02:28.561Z,95098.53
2022-07-31T04:04:55.540Z,95101.50
2022-07-31T04:07:22.095Z,95097.47
2022-07-31T04:09:48.690Z,95102.84
2022-07-31T04:12:15.408Z,95101.50
2022-07-31T04:14:42.030Z,95091.31
2022-07-31T04:17:08.574Z,95099.09
2022-07-31T04:19:35.332Z,95098.28
2022-07-31T04:22:02.643Z,95098.03
2022-07-31T04:24:29.421Z,95087.88
2022-07-31T04:26:56.980Z,95086.31
2022-07-31T04:29:24.190Z,95083.63
2022-07-31T04:31:51.018Z,95085.22
2022-07-31T04:34:17.860Z,95083.63
2022-07-31T04:36:44.380Z,95086.84
2022-07-31T04:39:10.933Z,95083.63
2022-07-31T04:41:37.464Z,95086.81
2022-07-31T04:44:04.092Z,95093.25
2022-07-31T04:46:30.620Z,95091.06
2022-07-31T04:48:57.273Z,95091.06
2022-07-31T04:51:24.272Z,95098.59
2022-07-31T04:53:51.600Z,95098.88
2022-07-31T04:56:37.399Z,95101.34
2022-07-31T04:59:06.756Z,95104.59
2022-07-31T05:01:34.438Z,95109.66
2022-07-31T05:04:01.588Z,95103.53
2022-07-31T05:06:36.244Z,95105.44
2022-07-31T05:09:08.575Z,95119.72
2022-07-31T05:11:36.559Z,95115.16
2022-07-31T05:14:05.448Z,95119.97
2022-07-31T05:16:32.934Z,95124.47
2022-07-31T05:19:00.317Z,95120.47
2022-07-31T05:21:27.620Z,95116.41
2022-07-31T05:23:55.354Z,95112.16
2022-07-31T05:26:22.667Z,95116.19
2022-07-31T05:28:50.984Z,95117.25
2022-07-31T05:31:19.931Z,95110.28
2022-07-31T05:33:48.325Z,95107.31
2022-07-31T05:36:16.027Z,95107.59
2022-07-31T05:38:42.779Z,95116.94
2022-07-31T05:41:09.807Z,95123.91
2022-07-31T05:43:36.792Z,95120.16
2022-07-31T05:46:04.204Z,95119.59
2022-07-31T05:48:30.875Z,95120.66
2022-07-31T05:50:58.697Z,95121.97
2022-07-31T05:53:26.906Z,95122.75
2022-07-31T05:55:53.481Z,95123.06
2022-07-31T05:58:20.685Z,95118.53
2022-07-31T06:00:49.011Z,95120.69
2022-07-31T06:03:16.519Z,95116.38
2022-07-31T06:05:43.098Z,95119.03
2022-07-31T06:08:10.009Z,95121.22
2022-07-31T06:10:37.657Z,95129.22
2022-07-31T06:13:07.142Z,95121.13
2022-07-31T06:15:36.564Z,95131.31
2022-07-31T06:18:04.240Z,95123.78
2022-07-31T06:20:31.232Z,95122.13
2022-07-31T06:22:57.897Z,95130.16
2022-07-31T06:25:24.943Z,95132.31
2022-07-31T06:27:59.367Z,95128.00
2022-07-31T06:30:27.923Z,95129.63
2022-07-31T06:32:54.551Z,95136.63
2022-07-31T06:35:21.159Z,95133.38
2022-07-31T06:37:47.734Z,95137.94
2022-07-31T06:40:14.559Z,95140.38
2022-07-31T06:42:41.908Z,95147.06
2022-07-31T06:45:09.144Z,95145.69
2022-07-31T06:47:35.763Z,95141.63
2022-07-31T06:50:02.668Z,95137.59
2022-07-31T06:52:29.284Z,95140.81
2022-07-31T06:54:55.872Z,95141.41
2022-07-31T06:57:22.480Z,95152.13
2022-07-31T06:59:48.989Z,95145.66
2022-07-31T07:02:16.605Z,95149.91
2022-07-31T07:05:04.527Z,95150.72
2022-07-31T07:07:31.948Z,95152.06
2022-07-31T07:09:58.693Z,95150.47
2022-07-31T07:12:25.332Z,95157.44
2022-07-31T07:14:53.656Z,95156.66
2022-07-31T07:17:20.317Z,95152.06
2022-07-31T07:19:46.901Z,95157.94
2022-07-31T07:22:31.288Z,95151.47
2022-07-31T07:24:59.523Z,95160.09
2022-07-31T07:27:26.104Z,95148.94
2022-07-31T07:29:52.697Z,95154.28
2022-07-31T07:32:19.189Z,95152.13
2022-07-31T07:34:45.899Z,95157.50
2022-07-31T07:37:12.639Z,95159.13
2022-07-31T07:39:39.233Z,95160.00
2022-07-31T07:42:06.111Z,95164.56
2022-07-31T07:44:33.027Z,95158.13
2022-07-31T07:46:59.544Z,95161.56
2022-07-31T07:49:26.263Z,95169.63
2022-07-31T07:51:58.895Z,95166.50
2022-07-31T07:54:36.257Z,95180.19
2022-07-31T07:57:02.938Z,95173.22
2022-07-31T07:59:29.466Z,95175.06
2022-07-31T08:01:56.464Z,95183.09
2022-07-31T08:04:23.061Z,95186.53
2022-07-31T08:06:49.644Z,95181.69
2022-07-31T08:09:16.230Z,95187.84
2022-07-31T08:11:42.884Z,95189.72
2022-07-31T08:14:09.674Z,95188.38
2022-07-31T08:16:36.225Z,95195.06
2022-07-31T08:19:02.825Z,95191.81
2022-07-31T08:21:29.373Z,95190.50
2022-07-31T08:23:56.007Z,95192.38
2022-07-31T08:26:22.805Z,95196.41
2022-07-31T08:28:53.980Z,95195.66
2022-07-31T08:31:22.546Z,95195.44
2022-07-31T08:33:49.564Z,95202.13
2022-07-31T08:36:16.500Z,95198.38
2022-07-31T08:38:43.061Z,95203.22
2022-07-31T08:41:09.752Z,95203.75
2022-07-31T08:44:00.910Z,95210.72
2022-07-31T08:46:23.662Z,95219.06
2022-07-31T08:48:54.883Z,95208.63
2022-07-31T08:51:24.047Z,95215.91
2022-07-31T08:53:54.157Z,95221.59
2022-07-31T08:56:21.540Z,95220.78
2022-07-31T08:58:48.135Z,95215.72
2022-07-31T09:01:15.407Z,95220.56
2022-07-31T09:03:42.520Z,95226.50
2022-07-31T09:06:09.302Z,95230.50
2022-07-31T09:08:37.816Z,95230.81
2022-07-31T09:11:11.415Z,95232.41
2022-07-31T09:13:38.709Z,95224.91
2022-07-31T09:16:06.231Z,95227.31
2022-07-31T09:18:33.821Z,95227.56
2022-07-31T09:21:03.233Z,95226.22
2022-07-31T09:23:30.969Z,95229.44
2022-07-31T09:26:00.320Z,95227.84
2022-07-31T09:28:38.742Z,95223.25
2022-07-31T09:31:07.350Z,95233.47
2022-07-31T09:33:34.404Z,95237.75
2022-07-31T09:36:01.054Z,95232.66
2022-07-31T09:38:32.371Z,95239.63
2022-07-31T09:41:55.622Z,95242.56
2022-07-31T09:44:10.294Z,95237.69
2022-07-31T09:46:40.338Z,95237.94
2022-07-31T09:49:07.537Z,95240.38
2022-07-31T09:51:42.128Z,95232.38
2022-07-31T09:54:19.241Z,95226.47
2022-07-31T09:56:46.895Z,95232.88
2022-07-31T09:59:13.577Z,95241.41
2022-07-31T10:01:41.443Z,95238.69
2022-07-31T10:04:08.573Z,95229.00
2022-07-31T10:06:35.997Z,95245.59
2022-07-31T10:09:05.001Z,95230.56
2022-07-31T10:11:32.110Z,95243.97
2022-07-31T10:14:02.289Z,95229.94
2022-07-31T10:16:32.800Z,95235.84
2022-07-31T10:19:03.670Z,95231.31
2022-07-31T10:21:41.241Z,95241.75
2022-07-31T10:24:10.110Z,95237.41
2022-07-31T10:26:59.283Z,95244.09
2022-07-31T10:29:24.830Z,95258.88
2022-07-31T10:31:51.759Z,95264.00
2022-07-31T10:34:21.261Z,95260.63
2022-07-31T10:36:53.311Z,95263.41
2022-07-31T10:39:24.745Z,95255.09
2022-07-31T10:42:08.400Z,95257.53
2022-07-31T10:44:47.205Z,95266.34
2022-07-31T10:47:17.510Z,95265.06
2022-07-31T10:49:49.348Z,95263.97
2022-07-31T10:52:29.119Z,95263.47
2022-07-31T10:54:58.383Z,95258.66
2022-07-31T10:57:30.872Z,95254.38
2022-07-31T11:00:12.011Z,95259.44
2022-07-31T11:02:38.720Z,95262.34
2022-07-31T11:05:09.089Z,95260.16
2022-07-31T11:07:36.008Z,95266.00
2022-07-31T11:10:14.520Z,95266.47
2022-07-31T11:12:41.850Z,95269.69
2022-07-31T11:15:23.475Z,95271.09
2022-07-31T11:18:22.027Z,95268.44
2022-07-31T11:20:37.714Z,95271.34
2022-07-31T11:23:07.615Z,95276.16
2022-07-31T11:25:37.979Z,95279.34
2022-07-31T11:28:23.746Z,95287.72
2022-07-31T11:31:19.536Z,95275.03
2022-07-31T11:33:47.835Z,95283.09
2022-07-31T11:36:20.277Z,95283.88
2022-07-31T11:38:49.913Z,95284.94
2022-07-31T11:41:22.083Z,95286.53
2022-07-31T11:43:51.245Z,95288.94
2022-07-31T11:46:26.130Z,95292.16
2022-07-31T11:48:53.622Z,95286.25
2022-07-31T11:51:21.711Z,95301.34
2022-07-31T11:53:52.513Z,95291.69
2022-07-31T11:56:25.826Z,95296.75
2022-07-31T11:58:55.316Z,95294.91
2022-07-31T12:01:29.499Z,95308.09
2022-07-31T12:04:07.572Z,95303.00
2022-07-31T12:06:36.855Z,95303.00
2022-07-31T12:09:04.114Z,95310.56
2022-07-31T12:11:30.835Z,95306.84
2022-07-31T12:13:57.456Z,95316.53
2022-07-31T12:16:24.034Z,95317.06
2022-07-31T12:18:53.758Z,95318.94
2022-07-31T12:21:21.039Z,95333.72
2022-07-31T12:23:52.185Z,95334.25
2022-07-31T12:26:24.563Z,95334.53
2022-07-31T12:29:02.138Z,95336.41
2022-07-31T12:31:30.365Z,95337.78
2022-07-31T12:33:57.037Z,95324.63
2022-07-31T12:36:23.736Z,95329.75
2022-07-31T12:39:02.384Z,95320.06
2022-07-31T12:41:29.839Z,95321.34
2022-07-31T12:44:06.822Z,95318.13
2022-07-31T12:46:38.594Z,95321.63
2022-07-31T12:49:06.464Z,95318.69
2022-07-31T12:51:46.342Z,95331.28
2022-07-31T12:54:17.864Z,95321.38
2022-07-31T12:56:46.626Z,95325.72
2022-07-31T12:59:13.686Z,95330.59
2022-07-31T13:01:40.466Z,95339.66
2022-07-31T13:04:08.051Z,95328.38
2022-07-31T13:06:45.149Z,95333.50
2022-07-31T13:09:11.680Z,95339.63
2022-07-31T13:11:46.334Z,95333.75
2022-07-31T13:14:19.633Z,95332.69
2022-07-31T13:16:47.954Z,95329.97
2022-07-31T13:19:15.540Z,95348.50
2022-07-31T13:21:49.322Z,95343.69
2022-07-31T13:24:18.789Z,95349.38
2022-07-31T13:26:45.639Z,95343.19
2022-07-31T13:29:12.456Z,95347.22
2022-07-31T13:31:39.397Z,95340.00
2022-07-31T13:34:06.931Z,95345.38
2022-07-31T13:36:36.234Z,95340.28
2022-07-31T13:39:06.821Z,95342.41
2022-07-31T13:41:35.499Z,95335.44
2022-07-31T13:44:03.411Z,95344.84
2022-07-31T13:46:30.240Z,95333.28
2022-07-31T13:48:59.381Z,95338.13
2022-07-31T13:51:28.869Z,95335.94
2022-07-31T13:53:55.851Z,95340.53
2022-07-31T13:56:34.097Z,95343.75
2022-07-31T13:59:09.807Z,95344.03
2022-07-31T14:02:04.616Z,95339.72
2022-07-31T14:04:24.808Z,95340.25
2022-07-31T14:06:51.841Z,95350.75
2022-07-31T14:09:19.394Z,95352.63
2022-07-31T14:11:46.042Z,95350.72
2022-07-31T14:14:14.876Z,95358.78
2022-07-31T14:16:48.981Z,95359.59
2022-07-31T14:19:15.595Z,95361.22
2022-07-31T14:21:56.266Z,95350.47
2022-07-31T14:24:24.748Z,95355.81
2022-07-31T14:26:51.392Z,95360.13
2022-07-31T14:29:17.971Z,95361.47
2022-07-31T14:31:44.576Z,95353.72
2022-07-31T14:34:11.133Z,95357.44
2022-07-31T14:36:37.906Z,95368.47
2022-07-31T14:39:04.525Z,95367.66
2022-07-31T14:41:31.179Z,95373.53
2022-07-31T14:43:57.715Z,95366.00
2022-07-31T14:46:24.258Z,95370.59
2022-07-31T14:48:50.951Z,95370.84
2022-07-31T14:51:19.140Z,95368.19
2022-07-31T14:53:48.760Z,95371.09
2022-07-31T14:56:27.234Z,95380.53
2022-07-31T14:59:02.580Z,95370.63
2022-07-31T15:01:30.860Z,95371.38
2022-07-31T15:03:57.951Z,95378.41
2022-07-31T15:06:41.099Z,95368.72
2022-07-31T15:09:11.469Z,95371.44
2022-07-31T15:11:59.338Z,95368.22
2022-07-31T15:14:24.800Z,95372.53
2022-07-31T15:16:51.449Z,95377.34
2022-07-31T15:19:18.067Z,95369.31
2022-07-31T15:22:09.772Z,95383.00
2022-07-31T15:24:32.684Z,95382.19
2022-07-31T15:26:59.479Z,95397.47
2022-07-31T15:29:26.002Z,95384.31
2022-07-31T15:32:12.509Z,95383.78
2022-07-31T15:34:39.250Z,95384.06
2022-07-31T15:37:06.165Z,95392.94
2022-07-31T15:39:33.030Z,95389.72
2022-07-31T15:42:00.037Z,95377.41
2022-07-31T15:44:26.648Z,95388.63
2022-07-31T15:46:53.251Z,95380.88
2022-07-31T15:49:19.901Z,95384.91
2022-07-31T15:51:46.479Z,95379.00
2022-07-31T15:54:13.043Z,95377.16
2022-07-31T15:56:39.558Z,95383.84
2022-07-31T15:59:06.472Z,95383.28
2022-07-31T16:01:33.184Z,95381.44
2022-07-31T16:03:59.877Z,95379.03
2022-07-31T16:06:28.057Z,95379.84
2022-07-31T16:08:58.795Z,95379.03
2022-07-31T16:11:25.391Z,95381.69
2022-07-31T16:14:11.942Z,95389.19
2022-07-31T16:16:40.988Z,95385.44
2022-07-31T16:19:09.583Z,95387.06
2022-07-31T16:21:38.123Z,95388.94
2022-07-31T16:24:05.513Z,95388.66
2022-07-31T16:26:33.471Z,95402.06
2022-07-31T16:29:00.588Z,95392.44
2022-07-31T16:31:30.161Z,95391.34
2022-07-31T16:33:57.391Z,95388.38
2022-07-31T16:36:24.846Z,95394.03
2022-07-31T16:39:17.638Z,95396.69
2022-07-31T16:41:54.472Z,95388.94
2022-07-31T16:44:21.920Z,95390.28
2022-07-31T16:46:54.258Z,95398.56
2022-07-31T16:49:28.394Z,95404.75
2022-07-31T16:52:03.361Z,95392.44
2022-07-31T16:54:29.878Z,95395.09
2022-07-31T16:56:56.407Z,95397.78
2022-07-31T16:59:22.934Z,95408.78
2022-07-31T17:01:58.065Z,95403.69
2022-07-31T17:04:27.584Z,95407.16
2022-07-31T17:06:54.662Z,95397.50
2022-07-31T17:09:21.824Z,95413.03
2022-07-31T17:11:51.055Z,95413.88
2022-07-31T17:14:19.772Z,95404.75
2022-07-31T17:16:48.791Z,95407.66
2022-07-31T17:19:41.501Z,95410.59
2022-07-31T17:22:11.011Z,95409.53
2022-07-31T17:24:38.484Z,95413.81
2022-07-31T17:27:09.432Z,95419.41
2022-07-31T17:29:38.101Z,95419.69
2022-07-31T17:32:05.787Z,95421.31
2022-07-31T17:34:32.365Z,95411.63
2022-07-31T17:36:58.943Z,95424.50
2022-07-31T17:39:30.406Z,95424.25
2022-07-31T17:41:57.480Z,95421.00
2022-07-31T17:44:24.222Z,95424.22
2022-07-31T17:46:50.863Z,95424.25
2022-07-31T17:49:20.523Z,95427.16
2022-07-31T17:51:58.809Z,95436.28
2022-07-31T17:54:27.545Z,95437.88
2022-07-31T17:56:54.215Z,95436.25
2022-07-31T17:59:20.835Z,95434.66
2022-07-31T18:01:51.554Z,95428.47
2022-07-31T18:04:19.332Z,95444.56
2022-07-31T18:06:45.962Z,95435.13
2022-07-31T18:09:14.419Z,95436.75
2022-07-31T18:11:40.965Z,95433.50
2022-07-31T18:14:07.494Z,95431.38
2022-07-31T18:16:34.032Z,95432.94
2022-07-31T18:19:00.566Z,95434.28
2022-07-31T18:21:27.139Z,95432.97
2022-07-31T18:23:53.798Z,95432.16
2022-07-31T18:26:20.448Z,95435.66
2022-07-31T18:28:46.990Z,95441.00
2022-07-31T18:31:31.924Z,95429.72
2022-07-31T18:34:00.471Z,95442.06
2022-07-31T18:36:27.203Z,95440.44
2022-07-31T18:38:53.715Z,95436.16
2022-07-31T18:41:20.841Z,95444.19
2022-07-31T18:43:47.949Z,95447.41
2022-07-31T18:46:14.892Z,95445.22
2022-07-31T18:48:41.582Z,95449.50
2022-07-31T18:51:08.407Z,95443.09
2022-07-31T18:53:35.032Z,95449.25
2022-07-31T18:56:01.746Z,95449.78
2022-07-31T18:58:28.457Z,95445.75
2022-07-31T19:00:55.480Z,95439.38
2022-07-31T19:03:23.666Z,95451.16
2022-07-31T19:05:52.969Z,95456.50
2022-07-31T19:08:20.379Z,95462.41
2022-07-31T19:10:49.484Z,95460.25
2022-07-31T19:13:18.866Z,95465.06
2022-07-31T19:15:51.578Z,95467.19
2022-07-31T19:18:24.384Z,95457.59
2022-07-31T19:21:16.608Z,95462.41
2022-07-31T19:23:43.109Z,95462.91
2022-07-31T19:26:09.797Z,95464.50
2022-07-31T19:28:38.271Z,95474.66
2022-07-31T19:31:05.201Z,95469.81
2022-07-31T19:33:31.882Z,95469.03
2022-07-31T19:36:01.822Z,95462.34
2022-07-31T19:38:31.091Z,95465.56
2022-07-31T19:40:57.906Z,95466.38
2022-07-31T19:43:24.814Z,95467.41
2022-07-31T19:46:09.448Z,95455.91
2022-07-31T19:48:39.741Z,95462.81
2022-07-31T19:51:06.434Z,95462.53
2022-07-31T19:53:33.102Z,95464.13
2022-07-31T19:56:01.603Z,95458.78
2022-07-31T19:58:28.184Z,95456.41
2022-07-31T20:00:54.717Z,95456.91
2022-07-31T20:03:21.436Z,95460.66
2022-07-31T20:05:48.082Z,95466.00
2022-07-31T20:08:14.665Z,95451.31
2022-07-31T20:10:41.168Z,95458.78
2022-07-31T20:13:07.767Z,95455.28
2022-07-31T20:15:50.997Z,95453.44
2022-07-31T20:18:27.344Z,95456.41
2022-07-31T20:20:57.130Z,95451.31
2022-07-31T20:23:24.196Z,95463.56
2022-07-31T20:25:50.734Z,95460.34
2022-07-31T20:28:17.340Z,95461.16
2022-07-31T20:30:43.885Z,95457.91
2022-07-31T20:33:11.279Z,95454.47
2022-07-31T20:35:49.213Z,95457.91
2022-07-31T20:38:22.001Z,95453.66
2022-07-31T20:40:54.138Z,95460.13
2022-07-31T20:43:27.052Z,95462.00
2022-07-31T20:45:57.191Z,95461.16
2022-07-31T20:48:27.065Z,95458.47
2022-07-31T20:50:53.684Z,95462.47
2022-07-31T20:53:21.700Z,95459.53
2022-07-31T20:55:50.038Z,95464.66
2022-07-31T20:58:19.223Z,95460.34
2022-07-31T21:00:47.643Z,95460.63
2022-07-31T21:03:15.630Z,95462.25
2022-07-31T21:05:42.807Z,95450.47
2022-07-31T21:08:10.601Z,95453.16
2022-07-31T21:10:37.476Z,95444.06
2022-07-31T21:13:04.554Z,95446.47
2022-07-31T21:15:42.193Z,95453.16
2022-07-31T21:18:21.431Z,95448.06
2022-07-31T21:20:52.970Z,95449.69
2022-07-31T21:23:24.740Z,95446.19
2022-07-31T21:25:53.580Z,95444.47
2022-07-31T21:28:21.651Z,95446.59
2022-07-31T21:30:48.466Z,95441.53
2022-07-31T21:33:15.275Z,95444.78
2022-07-31T21:35:42.203Z,95439.75
2022-07-31T21:38:15.349Z,95447.75
2022-07-31T21:40:42.128Z,95444.53
2022-07-31T21:43:09.685Z,95448.84
2022-07-31T21:45:50.426Z,95453.59
2022-07-31T21:48:23.122Z,95456.81
2022-07-31T21:50:50.038Z,95448.53
2022-07-31T21:53:16.622Z,95449.28
2022-07-31T21:55:43.141Z,95449.81
2022-07-31T21:58:09.903Z,95451.47
2022-07-31T22:00:37.253Z,95450.88
2022-07-31T22:03:05.045Z,95448.22
2022-07-31T22:05:50.864Z,95445.00
2022-07-31T22:08:18.032Z,95449.53
2022-07-31T22:10:44.680Z,95448.22
2022-07-31T22:13:11.698Z,95446.91
2022-07-31T22:15:54.227Z,95453.59
2022-07-31T22:18:27.149Z,95459.47
2022-07-31T22:20:54.003Z,95455.19
2022-07-31T22:23:21.069Z,95451.97
2022-07-31T22:25:49.116Z,95452.78
2022-07-31T22:28:18.935Z,95445.03
2022-07-31T22:30:45.912Z,95448.25
2022-07-31T22:33:12.644Z,95451.47
2022-07-31T22:35:40.871Z,95449.53
2022-07-31T22:38:08.160Z,95450.09
2022-07-31T22:40:34.859Z,95449.31
2022-07-31T22:43:02.553Z,95440.81
2022-07-31T22:45:30.160Z,95442.97
2022-07-31T22:47:57.910Z,95433.56
2022-07-31T22:50:24.829Z,95437.56
2022-07-31T22:52:51.627Z,95437.00
2022-07-31T22:55:18.288Z,95431.38
2022-07-31T22:57:45.159Z,95438.34
2022-07-31T23:00:18.175Z,95437.25
2022-07-31T23:02:45.820Z,95436.97
2022-07-31T23:05:12.692Z,95434.81
2022-07-31T23:07:39.514Z,95430.25
2022-07-31T23:10:07.571Z,95438.06
2022-07-31T23:12:34.288Z,95431.63
2022-07-31T23:15:00.817Z,95432.69
2022-07-31T23:17:27.388Z,95432.44
2022-07-31T23:19:54.794Z,95429.50
2022-07-31T23:22:30.798Z,95421.22
2022-07-31T23:25:05.118Z,95431.16
2022-07-31T23:27:32.873Z,95435.94
2022-07-31T23:29:59.997Z,95428.72
2022-07-31T23:32:27.604Z,95432.22
2022-07-31T23:34:54.452Z,95435.97
2022-07-31T23:37:21.494Z,95441.63
2022-07-31T23:39:48.039Z,95435.22
2022-07-31T23:42:33.144Z,95442.47
2022-07-31T23:44:59.740Z,95445.66
2022-07-31T23:47:40.725Z,95446.47
2022-07-31T23:50:13.933Z,95444.28
2022-07-31T23:52:40.639Z,95445.09
2022-07-31T23:55:07.527Z,95437.31
2022-07-31T23:57:34.158Z,95451.47
